Time;durP1;ratioP1;P1;durP2;ratioP2;P2;SDS_P1;SDS_P2;PMS_P1;PMS_P2;Temp;Humidity;BMP_temperature;BMP_pressure;BME280_temperature;BME280_humidity;BME280_pressure;Samples;Min_cycle;Max_cycle;Signal;HPM_P1;HPM_P2
2022/07/01 00:00:03;;;;;;;22.30;10.70;;;;;;;14.06;93.35;101348.84;5065800;28;20032;-77
2022/07/01 00:02:29;;;;;;;20.60;10.02;;;;;;;14.02;93.04;101363.56;5066788;28;20384;-77
2022/07/01 00:04:54;;;;;;;21.73;10.32;;;;;;;13.98;92.55;101360.22;5066628;28;20132;-77
2022/07/01 00:07:19;;;;;;;22.13;10.75;;;;;;;13.97;92.62;101356.69;5069235;28;20039;-77
2022/07/01 00:09:44;;;;;;;22.38;9.43;;;;;;;13.95;92.98;101355.97;5062718;28;20044;-77
2022/07/01 00:12:10;;;;;;;23.52;10.55;;;;;;;13.97;92.80;101353.97;5064608;28;20067;-77
2022/07/01 00:14:35;;;;;;;24.98;10.48;;;;;;;13.92;92.27;101356.19;5064567;28;20028;-77
2022/07/01 00:17:01;;;;;;;21.70;9.68;;;;;;;13.87;92.35;101353.00;5064358;28;20505;-77
2022/07/01 00:19:26;;;;;;;21.70;9.85;;;;;;;13.89;92.77;101344.75;5069066;28;20035;-77
2022/07/01 00:21:51;;;;;;;22.70;11.40;;;;;;;13.84;92.41;101344.28;5074879;28;20036;-78
2022/07/01 00:24:17;;;;;;;21.45;10.88;;;;;;;13.80;92.32;101343.66;5063932;28;20472;-77
2022/07/01 00:26:42;;;;;;;21.98;10.18;;;;;;;13.81;92.11;101335.44;5067663;28;20082;-77
2022/07/01 00:29:08;;;;;;;22.98;10.27;;;;;;;13.80;92.05;101328.28;5067327;28;20393;-77
2022/07/01 00:31:33;;;;;;;22.42;11.07;;;;;;;13.84;92.39;101338.88;5065082;28;20429;-77
2022/07/01 00:33:58;;;;;;;24.90;11.75;;;;;;;13.82;92.51;101341.69;5068632;28;20049;-77
2022/07/01 00:36:23;;;;;;;23.60;10.68;;;;;;;13.80;92.16;101322.03;5069375;28;20352;-77
2022/07/01 00:38:49;;;;;;;25.30;11.88;;;;;;;13.77;92.80;101316.88;5068387;28;20086;-77
2022/07/01 00:41:14;;;;;;;23.27;11.32;;;;;;;13.81;92.29;101313.81;5061110;28;20021;-77
2022/07/01 00:43:40;;;;;;;25.17;11.95;;;;;;;13.77;92.27;101306.06;5069883;28;20032;-77
2022/07/01 00:46:05;;;;;;;23.67;11.07;;;;;;;13.75;92.51;101314.31;5060116;28;20106;-77
2022/07/01 00:48:36;;;;;;;24.30;11.23;;;;;;;13.76;92.64;101309.75;5069119;28;20067;-77
2022/07/01 00:51:01;;;;;;;24.52;11.82;;;;;;;13.72;92.26;101308.28;5066629;28;20115;-78
2022/07/01 00:53:28;;;;;;;24.60;11.43;;;;;;;13.67;92.63;101302.38;5070273;28;20532;-78
2022/07/01 00:55:53;;;;;;;25.17;10.40;;;;;;;13.68;92.63;101320.31;5069279;28;20042;-78
2022/07/01 00:58:18;;;;;;;26.27;12.38;;;;;;;13.64;93.22;101322.38;5069646;28;20411;-78
2022/07/01 01:00:44;;;;;;;23.95;11.52;;;;;;;13.66;93.26;101328.56;5065907;28;20472;-77
2022/07/01 01:03:11;;;;;;;23.70;10.18;;;;;;;13.67;93.44;101321.28;5064616;28;20029;-79
2022/07/01 01:05:37;;;;;;;25.05;11.18;;;;;;;13.68;93.32;101329.28;5069215;28;20029;-78
2022/07/01 01:08:03;;;;;;;24.30;11.32;;;;;;;13.66;93.41;101336.66;5075122;28;20024;-78
2022/07/01 01:10:30;;;;;;;23.48;10.95;;;;;;;13.70;93.91;101331.84;5066963;28;20067;-78
2022/07/01 01:12:56;;;;;;;26.60;12.00;;;;;;;13.74;94.40;101336.88;5062791;28;20044;-78
2022/07/01 01:15:21;;;;;;;26.25;12.07;;;;;;;13.72;94.22;101343.38;5064861;28;20453;-78
2022/07/01 01:17:47;;;;;;;24.77;12.40;;;;;;;13.78;94.92;101356.44;5066479;28;20111;-78
2022/07/01 01:20:17;;;;;;;24.80;12.02;;;;;;;13.76;94.39;101361.06;5067291;28;20523;-78
2022/07/01 01:22:44;;;;;;;24.33;12.77;;;;;;;13.76;94.37;101363.78;5064450;28;20310;-78
2022/07/01 01:25:10;;;;;;;25.85;13.40;;;;;;;13.80;94.59;101365.25;5067867;28;20024;-78
2022/07/01 01:27:36;;;;;;;25.25;12.98;;;;;;;13.87;94.51;101376.47;5069339;28;20381;-78
2022/07/01 01:30:04;;;;;;;27.83;12.75;;;;;;;13.91;94.73;101370.69;5067308;28;20032;-78
2022/07/01 01:32:30;;;;;;;25.40;12.95;;;;;;;13.94;94.65;101377.69;5064474;28;20056;-78
2022/07/01 01:34:55;;;;;;;24.83;12.88;;;;;;;13.91;94.15;101375.22;5068431;28;20115;-78
2022/07/01 01:37:20;;;;;;;26.73;12.93;;;;;;;13.94;94.32;101373.16;5068369;28;20524;-78
2022/07/01 01:39:46;;;;;;;23.65;12.55;;;;;;;13.97;94.59;101374.75;5066741;28;20024;-78
2022/07/01 01:42:11;;;;;;;24.83;12.02;;;;;;;13.97;94.64;101372.91;5062895;28;20024;-78
2022/07/01 01:44:36;;;;;;;25.15;13.05;;;;;;;13.98;93.99;101363.81;5067093;28;20486;-78
2022/07/01 01:47:02;;;;;;;26.45;13.55;;;;;;;13.93;93.19;101360.59;5065721;28;20022;-78
2022/07/01 01:49:28;;;;;;;25.98;13.45;;;;;;;13.93;94.37;101360.59;5068481;28;20048;-78
2022/07/01 01:51:54;;;;;;;31.52;15.60;;;;;;;13.96;94.45;101363.06;5071697;28;20036;-78
2022/07/01 01:54:19;;;;;;;29.35;14.93;;;;;;;13.93;94.50;101367.88;5066071;28;20497;-78
2022/07/01 01:56:44;;;;;;;29.33;13.98;;;;;;;13.92;94.37;101364.28;5066398;28;20024;-79
2022/07/01 01:59:12;;;;;;;30.38;15.20;;;;;;;13.94;94.60;101367.75;5066574;28;20139;-78
2022/07/01 02:01:37;;;;;;;30.90;15.15;;;;;;;13.94;94.23;101361.50;5066670;28;20072;-78
2022/07/01 02:04:03;;;;;;;27.38;15.30;;;;;;;13.86;93.55;101370.19;5067724;28;20110;-78
2022/07/01 02:06:28;;;;;;;28.25;14.65;;;;;;;13.89;94.32;101369.94;5066174;28;20025;-78
2022/07/01 02:08:53;;;;;;;26.00;13.68;;;;;;;13.91;93.88;101373.41;5067925;28;20036;-78
2022/07/01 02:11:19;;;;;;;30.00;14.43;;;;;;;13.89;93.80;101369.09;5063159;28;21079;-78
2022/07/01 02:13:44;;;;;;;27.35;14.52;;;;;;;13.90;94.47;101384.31;5066708;28;20036;-78
2022/07/01 02:16:09;;;;;;;29.92;14.43;;;;;;;13.94;94.51;101389.34;5066190;28;20017;-78
2022/07/01 02:18:35;;;;;;;28.00;14.45;;;;;;;13.85;93.90;101389.22;5059075;28;20115;-78
2022/07/01 02:21:00;;;;;;;28.75;14.10;;;;;;;13.86;94.11;101397.19;5069780;28;20102;-78
2022/07/01 02:23:25;;;;;;;27.05;14.48;;;;;;;13.88;94.03;101399.78;5066422;28;20466;-78
2022/07/01 02:25:51;;;;;;;26.50;13.02;;;;;;;13.86;94.61;101402.59;5067636;28;20024;-78
2022/07/01 02:28:16;;;;;;;27.30;14.30;;;;;;;13.80;93.98;101408.50;5068577;28;20081;-78
2022/07/01 02:30:42;;;;;;;26.70;13.98;;;;;;;13.85;94.03;101418.94;5064745;28;20029;-78
2022/07/01 02:33:07;;;;;;;27.70;13.98;;;;;;;13.87;93.61;101404.34;5062397;28;20092;-78
2022/07/01 02:35:34;;;;;;;32.33;15.27;;;;;;;13.83;93.24;101369.56;5067533;28;21411;-78
2022/07/01 02:38:00;;;;;;;34.25;14.93;;;;;;;13.87;93.40;101352.16;5066258;28;20055;-78
2022/07/01 02:40:25;;;;;;;30.85;16.05;;;;;;;13.82;93.30;101360.59;5066103;28;20495;-78
2022/07/01 02:42:51;;;;;;;28.98;15.07;;;;;;;13.85;94.25;101373.88;5065807;28;20093;-78
2022/07/01 02:45:16;;;;;;;25.40;13.80;;;;;;;13.84;94.14;101374.84;5063348;28;20052;-78
2022/07/01 02:47:42;;;;;;;29.63;14.82;;;;;;;13.87;93.86;101381.88;5067177;28;20035;-78
2022/07/01 02:50:09;;;;;;;29.08;15.77;;;;;;;13.87;94.12;101403.47;5068113;28;20470;-79
2022/07/01 02:52:36;;;;;;;29.52;15.75;;;;;;;13.76;93.65;101409.69;5066948;28;20465;-79
2022/07/01 02:55:03;;;;;;;27.60;14.25;;;;;;;13.77;94.24;101398.78;5063353;28;20488;-78
2022/07/01 02:57:29;;;;;;;27.42;14.80;;;;;;;13.80;93.73;101403.09;5067926;28;20546;-78
2022/07/01 02:59:54;;;;;;;32.42;15.80;;;;;;;13.76;94.26;101404.31;5066770;28;20032;-78
2022/07/01 03:02:20;;;;;;;30.40;14.80;;;;;;;13.77;94.59;101403.34;5062340;28;20029;-78
2022/07/01 03:04:49;;;;;;;29.80;15.75;;;;;;;13.82;94.45;101401.13;5059166;28;20108;-78
2022/07/01 03:07:15;;;;;;;30.10;16.15;;;;;;;13.86;94.25;101402.59;5063637;28;20077;-78
2022/07/01 03:09:41;;;;;;;31.38;17.52;;;;;;;13.83;93.36;101402.84;5066132;28;20043;-79
2022/07/01 03:12:27;;;;;;;28.35;16.77;;;;;;;13.79;94.08;101401.34;5065328;28;20044;-78
2022/07/01 03:15:06;;;;;;;33.92;19.23;;;;;;;13.78;93.91;101402.34;5064867;28;20050;-78
2022/07/01 03:17:34;;;;;;;32.00;16.65;;;;;;;13.81;94.18;101407.53;5071271;28;20066;-78
2022/07/01 03:19:59;;;;;;;31.95;17.33;;;;;;;13.80;94.17;101408.50;5071592;28;20123;-78
2022/07/01 03:22:29;;;;;;;28.92;16.52;;;;;;;13.78;93.75;101399.66;5069289;28;20115;-79
2022/07/01 03:24:55;;;;;;;29.65;16.85;;;;;;;13.78;93.82;101388.84;5074821;28;20489;-79
2022/07/01 03:27:21;;;;;;;31.50;17.08;;;;;;;13.78;93.62;101394.25;5065307;28;20031;-79
2022/07/01 03:29:47;;;;;;;30.77;16.38;;;;;;;13.77;93.51;101403.34;5063025;28;20101;-79
2022/07/01 03:32:12;;;;;;;30.35;18.23;;;;;;;13.75;93.67;101413.41;5064307;28;20032;-79
2022/07/01 03:34:39;;;;;;;34.08;17.45;;;;;;;13.76;93.35;101416.00;5069841;28;20028;-79
2022/07/01 03:37:06;;;;;;;29.25;17.75;;;;;;;13.76;94.03;101425.91;5071254;28;20412;-79
2022/07/01 03:39:31;;;;;;;33.63;17.08;;;;;;;13.76;93.59;101434.03;5071180;28;20364;-78
2022/07/01 03:41:57;;;;;;;36.10;19.50;;;;;;;13.76;93.79;101444.81;5068196;28;20110;-78
2022/07/01 03:44:22;;;;;;;32.72;18.77;;;;;;;13.73;93.67;101445.06;5063507;28;20608;-78
2022/07/01 03:46:47;;;;;;;32.17;18.85;;;;;;;13.68;93.24;101436.47;5064449;28;20025;-78
2022/07/01 03:49:13;;;;;;;31.35;19.08;;;;;;;13.64;93.13;101450.19;5069062;28;20033;-78
2022/07/01 03:51:38;;;;;;;34.30;19.38;;;;;;;13.63;93.15;101453.88;5068093;28;20141;-78
2022/07/01 03:56:47;;;;;;;32.95;19.95;;;;;;;13.60;93.66;101464.94;5071183;28;20094;-78
2022/07/01 03:59:12;;;;;;;33.38;19.38;;;;;;;13.57;93.41;101464.28;5070128;28;20058;-78
2022/07/01 04:01:37;;;;;;;35.78;20.45;;;;;;;13.54;93.39;101480.72;5068395;28;20070;-78
2022/07/01 04:04:03;;;;;;;37.35;21.92;;;;;;;13.59;93.34;101476.69;5069098;28;20165;-78
2022/07/01 04:06:28;;;;;;;34.42;20.88;;;;;;;13.62;93.49;101476.47;5067056;28;20017;-78
2022/07/01 04:08:54;;;;;;;36.50;21.67;;;;;;;13.57;93.81;101473.28;5067791;28;20036;-78
2022/07/01 04:11:19;;;;;;;37.50;23.08;;;;;;;13.66;93.85;101482.50;5067050;28;20091;-78
2022/07/01 04:13:50;;;;;;;37.03;23.25;;;;;;;13.68;93.88;101482.41;5067366;28;20131;-78
2022/07/01 04:16:19;;;;;;;36.17;23.67;;;;;;;13.63;93.24;101469.22;5069888;28;20028;-78
2022/07/01 04:18:46;;;;;;;34.70;21.23;;;;;;;13.67;93.75;101477.97;5067830;28;20070;-79
2022/07/01 04:23:56;;;;;;;30.75;17.80;;;;;;;13.57;93.28;101475.97;5070336;28;20093;-78
2022/07/01 04:26:23;;;;;;;30.77;18.40;;;;;;;13.60;93.29;101475.72;5067109;28;20391;-78
2022/07/01 04:28:48;;;;;;;32.22;18.85;;;;;;;13.60;93.01;101473.03;5067672;28;20020;-78
2022/07/01 04:31:14;;;;;;;31.88;17.10;;;;;;;13.62;93.81;101475.63;5066580;28;20027;-78
2022/07/01 04:33:39;;;;;;;29.63;16.85;;;;;;;13.68;93.07;101474.28;5070014;28;20037;-78
2022/07/01 04:36:04;;;;;;;29.85;16.58;;;;;;;13.69;92.66;101487.69;5068832;28;20029;-79
2022/07/01 04:38:30;;;;;;;27.38;14.73;;;;;;;13.66;92.63;101487.91;5075962;28;20145;-78
2022/07/01 04:43:39;;;;;;;26.38;14.02;;;;;;;13.63;92.57;101482.72;5066540;28;20083;-79
2022/07/01 04:46:04;;;;;;;27.13;13.98;;;;;;;13.66;92.91;101487.03;5063596;28;21429;-78
2022/07/01 04:48:29;;;;;;;25.83;13.68;;;;;;;13.64;92.38;101485.31;5068888;28;20522;-78
2022/07/01 04:50:55;;;;;;;26.10;12.82;;;;;;;13.68;92.73;101482.41;5073088;28;20037;-78
2022/07/01 04:53:20;;;;;;;25.60;13.75;;;;;;;13.69;92.90;101481.41;5066371;28;20054;-79
2022/07/01 04:55:45;;;;;;;27.05;12.90;;;;;;;13.71;93.29;101483.00;5068547;28;20031;-79
2022/07/01 04:58:12;;;;;;;25.33;12.13;;;;;;;13.70;92.87;101478.56;5064732;28;20070;-78
2022/07/01 05:00:38;;;;;;;27.65;12.55;;;;;;;13.72;92.78;101475.75;5064467;28;20102;-79
2022/07/01 05:03:03;;;;;;;27.15;11.70;;;;;;;13.72;92.37;101476.63;5066587;28;20040;-79
2022/07/01 05:05:28;;;;;;;26.08;12.32;;;;;;;13.72;92.76;101481.16;5070573;28;20028;-79
2022/07/01 05:07:53;;;;;;;24.98;11.80;;;;;;;13.72;92.84;101486.56;5065613;28;20048;-79
2022/07/01 05:10:19;;;;;;;23.75;11.18;;;;;;;13.76;92.96;101494.34;5065073;28;20048;-79
2022/07/01 05:12:44;;;;;;;25.02;12.85;;;;;;;13.78;92.95;101499.63;5067080;28;20085;-79
2022/07/01 05:15:09;;;;;;;24.63;12.00;;;;;;;13.75;92.26;101491.75;5064600;28;20107;-79
2022/07/01 05:23:03;;;;;;;26.25;11.68;;;;;;;13.88;92.34;101500.63;5068024;28;20471;-79
2022/07/01 05:25:28;;;;;;;27.40;12.15;;;;;;;13.86;92.70;101490.91;5066570;28;20036;-79
2022/07/01 05:27:54;;;;;;;22.42;10.52;;;;;;;13.84;92.27;101498.28;5073207;28;20451;-79
2022/07/01 05:30:21;;;;;;;23.67;11.68;;;;;;;13.87;92.97;101500.75;5074115;28;20120;-79
2022/07/01 05:32:46;;;;;;;22.27;11.27;;;;;;;13.89;92.56;101496.06;5062177;28;20051;-79
2022/07/01 05:35:11;;;;;;;23.38;11.70;;;;;;;13.84;91.92;101496.44;5065900;28;20032;-79
2022/07/01 05:37:37;;;;;;;26.90;12.88;;;;;;;13.84;91.77;101498.28;5066185;28;20042;-79
2022/07/01 05:40:02;;;;;;;23.85;11.43;;;;;;;13.86;92.78;101504.44;5069166;28;20113;-79
2022/07/01 05:42:28;;;;;;;25.33;12.65;;;;;;;13.87;92.14;101495.34;5072201;28;20271;-80
2022/07/01 05:44:53;;;;;;;25.52;11.57;;;;;;;13.91;92.82;101496.81;5063976;28;20499;-80
2022/07/01 05:47:18;;;;;;;23.73;11.15;;;;;;;13.90;92.23;101506.78;5070806;28;20020;-79
2022/07/01 05:49:43;;;;;;;22.92;11.38;;;;;;;13.93;92.46;101501.13;5067374;28;20033;-79
2022/07/01 05:52:09;;;;;;;26.13;12.88;;;;;;;13.86;91.69;101489.06;5068327;28;20502;-80
2022/07/01 05:54:34;;;;;;;23.80;11.48;;;;;;;13.88;92.32;101503.34;5074892;28;20055;-79
2022/07/01 05:56:59;;;;;;;25.00;11.38;;;;;;;13.96;92.81;101509.00;5083108;28;20433;-80
2022/07/01 05:59:24;;;;;;;24.10;11.43;;;;;;;13.99;92.20;101505.19;5082873;28;20028;-81
2022/07/01 06:01:50;;;;;;;28.15;13.00;;;;;;;14.06;93.01;101501.03;5065663;28;20139;-80
2022/07/01 06:04:16;;;;;;;25.85;12.38;;;;;;;14.05;92.45;101498.47;5060729;28;20033;-79
2022/07/01 06:06:41;;;;;;;27.63;13.10;;;;;;;14.06;91.56;101498.34;5066245;28;20039;-80
2022/07/01 06:09:07;;;;;;;23.80;11.98;;;;;;;14.08;91.61;101493.66;5070779;28;20051;-80
2022/07/01 06:11:32;;;;;;;26.45;11.43;;;;;;;14.09;91.96;101497.25;5066214;28;20051;-80
2022/07/01 06:13:57;;;;;;;24.42;11.95;;;;;;;14.12;90.99;101499.72;5063070;28;20104;-80
2022/07/01 06:16:23;;;;;;;23.88;11.90;;;;;;;14.11;92.11;101503.38;5060362;28;20439;-82
2022/07/01 06:18:48;;;;;;;24.27;12.35;;;;;;;14.11;91.98;101508.78;5066124;28;20111;-81
2022/07/01 06:21:14;;;;;;;24.02;12.15;;;;;;;14.15;92.49;101511.13;5066197;28;20017;-80
2022/07/01 06:23:40;;;;;;;26.23;11.30;;;;;;;14.18;92.34;101503.78;5074406;28;20032;-80
2022/07/01 06:26:05;;;;;;;28.02;11.45;;;;;;;14.19;91.36;101498.25;5067381;28;20031;-81
2022/07/01 06:28:31;;;;;;;23.73;10.48;;;;;;;14.20;91.42;101501.81;5071145;28;20020;-79
2022/07/01 06:30:57;;;;;;;26.92;11.90;;;;;;;14.17;90.76;101502.91;5066596;28;20054;-81
2022/07/01 06:33:22;;;;;;;25.20;10.43;;;;;;;14.16;89.83;101502.03;5074083;28;20024;-79
2022/07/01 06:35:47;;;;;;;23.92;11.23;;;;;;;14.16;89.69;101493.09;5076708;28;20032;-81
2022/07/01 06:38:13;;;;;;;22.33;10.65;;;;;;;14.18;91.10;101488.41;5064453;28;20040;-82
2022/07/01 06:40:38;;;;;;;24.67;11.60;;;;;;;14.23;91.20;101490.75;5072244;28;20063;-79
2022/07/01 06:43:03;;;;;;;23.33;10.70;;;;;;;14.29;91.33;101496.53;5072773;28;20094;-81
2022/07/01 06:45:29;;;;;;;23.50;10.05;;;;;;;14.28;89.38;101489.41;5075102;28;20028;-80
2022/07/01 06:47:54;;;;;;;22.77;10.00;;;;;;;14.33;90.04;101486.34;5069028;28;20037;-81
2022/07/01 06:50:20;;;;;;;22.80;9.80;;;;;;;14.42;90.22;101487.44;5076910;28;20145;-82
2022/07/01 06:52:45;;;;;;;20.80;9.50;;;;;;;14.51;89.86;101481.31;5072579;28;20032;-82
2022/07/01 06:55:10;;;;;;;22.90;8.80;;;;;;;14.56;88.30;101489.06;5068467;28;20464;-81
2022/07/01 06:57:35;;;;;;;21.73;9.32;;;;;;;14.59;87.67;101489.66;5080727;28;20044;-81
2022/07/01 07:00:02;;;;;;;26.23;7.95;;;;;;;14.62;86.45;101494.84;5077157;28;20020;-81
2022/07/01 07:02:28;;;;;;;20.20;7.78;;;;;;;14.65;86.85;101491.91;5069902;28;20436;-82
2022/07/01 07:04:57;;;;;;;26.08;8.75;;;;;;;14.71;86.90;101495.13;5064225;28;20147;-83
2022/07/01 07:07:23;;;;;;;22.85;8.02;;;;;;;14.70;85.82;101498.78;5068036;28;20043;-82
2022/07/01 07:09:48;;;;;;;22.02;7.57;;;;;;;14.72;85.98;101507.66;5079491;28;20074;-82
2022/07/01 07:12:13;;;;;;;20.80;7.78;;;;;;;14.83;88.13;101499.53;5078430;28;20225;-82
2022/07/01 07:14:38;;;;;;;22.67;7.68;;;;;;;14.94;87.98;101523.03;5073416;28;20035;-82
2022/07/01 07:17:04;;;;;;;19.40;6.82;;;;;;;14.98;86.07;101525.34;5084272;28;20054;-82
2022/07/01 07:19:29;;;;;;;16.25;5.85;;;;;;;15.05;85.02;101530.25;5076365;28;20032;-83
2022/07/01 07:21:56;;;;;;;17.42;5.60;;;;;;;15.07;83.17;101531.00;5072959;28;20051;-82
2022/07/01 07:24:21;;;;;;;14.43;4.80;;;;;;;15.09;82.85;101538.00;5067160;28;20035;-82
2022/07/01 07:26:47;;;;;;;16.08;5.07;;;;;;;15.11;81.27;101527.03;5072843;28;20452;-82
2022/07/01 07:29:12;;;;;;;13.55;4.07;;;;;;;15.11;81.14;101525.22;5089441;28;20052;-81
2022/07/01 07:31:38;;;;;;;13.50;4.20;;;;;;;15.14;81.36;101524.97;5078213;28;20038;-82
2022/07/01 07:34:03;;;;;;;14.65;4.53;;;;;;;15.14;79.79;101527.69;5078434;28;20032;-81
2022/07/01 07:36:28;;;;;;;14.70;3.95;;;;;;;15.16;79.37;101531.09;5079084;28;20363;-82
2022/07/01 07:38:54;;;;;;;12.13;3.92;;;;;;;15.14;80.04;101521.38;5077781;28;20021;-82
2022/07/01 07:41:19;;;;;;;12.05;4.07;;;;;;;15.12;77.60;101520.66;5068791;28;20029;-83
2022/07/01 07:43:44;;;;;;;15.55;4.38;;;;;;;15.08;77.51;101525.47;5071974;28;20496;-83
2022/07/01 07:46:10;;;;;;;10.90;3.90;;;;;;;15.08;76.69;101524.59;5067731;28;20417;-82
2022/07/01 07:48:35;;;;;;;9.85;2.70;;;;;;;15.13;75.41;101527.81;5062174;28;20031;-82
2022/07/01 07:51:00;;;;;;;11.10;3.20;;;;;;;15.20;78.03;101531.72;5067918;28;20483;-82
2022/07/01 07:53:26;;;;;;;10.68;3.10;;;;;;;15.29;78.90;101539.09;5065791;28;20464;-83
2022/07/01 07:55:51;;;;;;;9.00;3.17;;;;;;;15.41;79.09;101552.59;5072330;28;20068;-84
2022/07/01 07:58:17;;;;;;;9.82;2.95;;;;;;;15.50;75.39;101555.41;5086491;28;20024;-83
2022/07/01 08:00:43;;;;;;;10.48;3.35;;;;;;;15.60;77.45;101541.09;5070030;28;20028;-83
2022/07/01 08:03:08;;;;;;;11.27;3.17;;;;;;;15.67;74.92;101540.44;5075232;28;20460;-83
2022/07/01 08:05:34;;;;;;;5.30;2.42;;;;;;;15.72;74.03;101540.06;5096340;28;20028;-82
2022/07/01 08:07:59;;;;;;;6.35;2.40;;;;;;;15.73;71.94;101545.34;5076968;28;20047;-83
2022/07/01 08:10:24;;;;;;;6.15;2.10;;;;;;;15.77;70.43;101547.78;5061779;28;20089;-83
2022/07/01 08:12:50;;;;;;;6.90;2.20;;;;;;;15.83;72.17;101547.34;5071464;28;20024;-83
2022/07/01 08:15:16;;;;;;;9.27;2.47;;;;;;;15.88;72.70;101559.47;5078083;28;20037;-83
2022/07/01 08:17:41;;;;;;;6.93;2.50;;;;;;;15.95;72.63;101565.25;5080266;28;20032;-82
2022/07/01 08:20:07;;;;;;;4.22;2.17;;;;;;;16.00;72.95;101565.75;5082862;28;20157;-83
2022/07/01 08:22:33;;;;;;;9.30;2.80;;;;;;;16.05;72.12;101562.63;5078316;28;20043;-84
2022/07/01 08:24:58;;;;;;;4.45;2.22;;;;;;;16.09;72.13;101564.06;5076753;28;20405;-83
2022/07/01 08:27:23;;;;;;;10.93;2.22;;;;;;;16.16;70.60;101575.25;5083701;28;20020;-83
2022/07/01 08:29:49;;;;;;;8.48;2.70;;;;;;;16.21;69.71;101579.31;5072793;28;20515;-85
2022/07/01 08:32:14;;;;;;;6.22;2.10;;;;;;;16.25;68.59;101580.78;5077918;28;20111;-84
2022/07/01 08:34:40;;;;;;;8.73;2.58;;;;;;;16.25;67.77;101574.47;5075682;28;20097;-82
2022/07/01 08:37:05;;;;;;;6.47;2.50;;;;;;;16.30;69.94;101577.66;5073014;28;20508;-82
2022/07/01 08:39:30;;;;;;;7.55;2.45;;;;;;;16.35;69.73;101580.81;5078828;28;20050;-83
2022/07/01 08:41:56;;;;;;;7.50;2.70;;;;;;;16.41;70.03;101568.56;5072855;28;20155;-82
2022/07/01 08:44:21;;;;;;;7.00;2.25;;;;;;;16.45;68.10;101580.03;5082139;28;20028;-85
2022/07/01 08:46:47;;;;;;;9.48;2.65;;;;;;;16.48;68.72;101585.19;5074529;28;20254;-84
2022/07/01 08:49:13;;;;;;;5.60;2.67;;;;;;;16.43;66.51;101594.59;5080271;28;20032;-83
2022/07/01 08:51:39;;;;;;;6.15;2.58;;;;;;;16.46;67.26;101604.31;5075475;28;20024;-82
2022/07/01 08:54:04;;;;;;;4.78;2.30;;;;;;;16.52;67.87;101602.94;5067833;28;20143;-85
2022/07/01 08:56:41;;;;;;;7.68;2.58;;;;;;;16.58;67.12;101608.69;5066356;28;20020;-84
2022/07/01 08:59:12;;;;;;;6.30;2.42;;;;;;;16.62;68.15;101616.53;5076179;28;20368;-84
2022/07/01 09:01:38;;;;;;;8.82;2.72;;;;;;;16.57;64.83;101617.84;5067790;28;20020;-82
2022/07/01 09:04:16;;;;;;;18.23;3.30;;;;;;;16.58;67.04;101621.41;5081240;28;20051;-83
2022/07/01 09:06:41;;;;;;;14.00;3.10;;;;;;;16.60;67.70;101624.81;5079518;28;20017;-84
2022/07/01 09:09:20;;;;;;;10.07;3.10;;;;;;;16.64;68.12;101623.56;5070987;28;20059;-85
2022/07/01 09:11:52;;;;;;;10.48;2.50;;;;;;;16.63;65.59;101624.56;5081277;28;20122;-84
2022/07/01 09:14:18;;;;;;;6.60;2.60;;;;;;;16.63;65.80;101616.41;5071856;28;20025;-85
2022/07/01 09:16:49;;;;;;;9.95;3.00;;;;;;;16.56;65.54;101615.22;5079658;28;20093;-84
2022/07/01 09:19:16;;;;;;;6.80;2.05;;;;;;;16.51;66.04;101606.63;5083056;28;20472;-84
2022/07/01 09:21:42;;;;;;;7.10;2.47;;;;;;;16.52;66.94;101602.94;5078752;28;20036;-84
2022/07/01 09:24:29;;;;;;;7.13;2.60;;;;;;;16.62;68.27;101611.13;5075970;28;20099;-85
2022/07/01 09:27:18;;;;;;;7.57;2.97;;;;;;;16.69;66.33;101613.19;5065332;28;20124;-82
2022/07/01 09:29:45;;;;;;;7.40;2.63;;;;;;;16.73;65.33;101622.75;5071497;28;20117;-83
2022/07/01 09:32:13;;;;;;;8.98;2.70;;;;;;;16.72;63.91;101620.19;5078995;28;20031;-82
2022/07/01 09:34:43;;;;;;;8.57;2.55;;;;;;;16.66;63.95;101626.16;5083888;28;20027;-82
2022/07/01 09:37:15;;;;;;;6.25;2.25;;;;;;;16.62;64.09;101627.41;5082427;28;20043;-82
2022/07/01 09:39:45;;;;;;;6.80;2.63;;;;;;;16.67;64.46;101633.31;5076558;28;20028;-81
2022/07/01 09:42:11;;;;;;;6.85;2.70;;;;;;;16.73;66.28;101633.63;5070478;28;20024;-81
2022/07/01 09:44:55;;;;;;;11.13;2.95;;;;;;;16.76;65.51;101619.81;5074294;28;20111;-82
2022/07/01 09:47:28;;;;;;;7.53;2.63;;;;;;;16.75;66.11;101625.34;5073604;28;20024;-81
2022/07/01 09:49:54;;;;;;;10.50;2.72;;;;;;;16.78;67.92;101625.94;5075908;28;20039;-82
2022/07/01 09:52:20;;;;;;;7.55;2.38;;;;;;;16.88;68.92;101617.00;5082995;28;20043;-82
2022/07/01 09:54:47;;;;;;;7.75;2.25;;;;;;;16.98;67.12;101627.94;5084440;28;20024;-82
2022/07/01 09:57:13;;;;;;;7.53;2.72;;;;;;;17.11;66.15;101626.69;5088416;28;20036;-82
2022/07/01 09:59:39;;;;;;;4.05;1.95;;;;;;;17.20;63.46;101621.44;5073560;28;20036;-82
2022/07/01 10:02:06;;;;;;;4.95;2.15;;;;;;;17.28;63.11;101633.34;5077494;28;20028;-82
2022/07/01 10:04:33;;;;;;;7.28;2.33;;;;;;;17.34;60.56;101637.38;5085377;28;20028;-83
2022/07/01 10:07:28;;;;;;;5.07;2.20;;;;;;;17.45;62.13;101628.25;5081575;28;20032;-81
2022/07/01 10:09:59;;;;;;;9.52;2.70;;;;;;;17.52;62.54;101628.56;5060351;28;20056;-83
2022/07/01 10:12:32;;;;;;;4.80;2.20;;;;;;;17.59;61.48;101636.03;5074326;28;20726;-74
2022/07/01 10:15:00;;;;;;;7.90;2.20;;;;;;;17.63;61.63;101633.91;5069217;28;20145;-78
2022/07/01 10:17:27;;;;;;;9.55;2.63;;;;;;;17.71;62.48;101636.75;5063344;28;20501;-78
2022/07/01 10:20:05;;;;;;;7.00;1.95;;;;;;;17.79;61.04;101644.25;5066203;28;20158;-78
2022/07/01 10:22:30;;;;;;;4.03;1.70;;;;;;;17.80;61.60;101645.94;5067051;28;20269;-79
2022/07/01 10:25:30;;;;;;;10.10;2.38;;;;;;;17.86;62.80;101653.53;5068210;28;20135;-78
2022/07/01 10:28:25;;;;;;;7.50;2.30;;;;;;;17.94;63.02;101653.72;5064842;28;20115;-78
2022/07/01 10:31:01;;;;;;;6.50;2.17;;;;;;;18.05;60.70;101666.31;5067018;28;20407;-78
2022/07/01 10:33:33;;;;;;;7.40;1.83;;;;;;;18.05;59.48;101671.75;5067440;28;20096;-77
2022/07/01 10:36:11;;;;;;;4.90;2.40;;;;;;;17.97;60.26;101674.34;5065241;28;20067;-78
2022/07/01 10:39:10;;;;;;;7.03;2.13;;;;;;;17.94;61.11;101674.63;5068651;28;20042;-78
2022/07/01 10:41:39;;;;;;;7.20;2.38;;;;;;;17.97;60.79;101671.63;5070382;28;20032;-80
2022/07/01 10:44:07;;;;;;;5.93;2.05;;;;;;;18.06;61.14;101667.19;5064440;28;20558;-79
2022/07/01 10:46:46;;;;;;;5.67;2.00;;;;;;;18.14;61.11;101665.50;5065382;28;20044;-80
2022/07/01 10:49:14;;;;;;;5.50;1.90;;;;;;;18.10;58.94;101664.06;5066154;28;20301;-80
2022/07/01 10:51:48;;;;;;;4.55;1.98;;;;;;;18.16;56.99;101668.06;5076931;28;20322;-80
2022/07/01 10:54:33;;;;;;;2.13;1.92;;;;;;;18.21;58.21;101656.75;5071623;28;20134;-80
2022/07/01 10:57:18;;;;;;;5.70;2.20;;;;;;;18.27;60.80;101656.19;5068666;28;20130;-80
2022/07/01 10:59:45;;;;;;;8.45;2.08;;;;;;;18.21;57.55;101660.31;5073375;28;20100;-80
2022/07/01 11:02:17;;;;;;;6.32;2.28;;;;;;;18.16;57.66;101665.34;5079776;28;20021;-79
2022/07/01 11:04:42;;;;;;;5.25;1.92;;;;;;;18.10;58.67;101666.78;5063618;28;20097;-80
2022/07/01 11:07:09;;;;;;;5.35;1.98;;;;;;;18.14;59.61;101662.78;5069755;28;20033;-79
2022/07/01 11:09:35;;;;;;;4.28;2.08;;;;;;;18.19;57.95;101656.91;5080676;28;20106;-80
2022/07/01 11:12:00;;;;;;;8.10;2.22;;;;;;;18.20;59.93;101655.03;5080197;28;20021;-79
2022/07/01 11:14:27;;;;;;;4.80;1.92;;;;;;;18.33;62.38;101647.44;5065536;28;20028;-81
2022/07/01 11:16:52;;;;;;;4.82;1.85;;;;;;;18.39;58.89;101638.72;5074490;28;20107;-80
2022/07/01 11:19:18;;;;;;;5.85;2.00;;;;;;;18.43;57.60;101636.53;5069421;28;20139;-79
2022/07/01 11:21:54;;;;;;;6.35;1.90;;;;;;;18.59;60.25;101641.41;5088062;28;20085;-80
2022/07/01 11:24:20;;;;;;;2.80;2.08;;;;;;;18.63;58.19;101631.94;5075277;28;20024;-80
2022/07/01 11:26:47;;;;;;;4.43;2.00;;;;;;;18.69;57.67;101634.91;5078732;28;20070;-80